Time;durP1;ratioP1;P1;durP2;ratioP2;P2;SDS_P1;SDS_P2;PMS_P1;PMS_P2;Temp;Humidity;BMP_temperature;BMP_pressure;BME280_temperature;BME280_humidity;BME280_pressure;Samples;Min_cycle;Max_cycle;Signal;HPM_P1;HPM_P2
2022/07/04 00:00:56;;;;;;;12.97;12.37;;;19.40;99.90;;;;;;5014801;28;20221;-72
2022/07/04 00:03:22;;;;;;;18.30;17.23;;;19.50;99.90;;;;;;5018933;28;20607;-71
2022/07/04 00:05:48;;;;;;;21.15;20.00;;;19.50;99.90;;;;;;5033261;28;20663;-71
2022/07/04 00:08:14;;;;;;;38.55;36.60;;;19.50;99.90;;;;;;5032398;28;20198;-71
2022/07/04 00:10:40;;;;;;;19.07;18.17;;;19.60;99.90;;;;;;5034933;28;20187;-71
2022/07/04 00:13:05;;;;;;;19.03;18.03;;;19.70;99.90;;;;;;5034843;28;20241;-71
2022/07/04 00:15:31;;;;;;;20.40;19.47;;;19.60;99.90;;;;;;5034215;28;20191;-71
2022/07/04 00:17:57;;;;;;;10.90;10.30;;;19.50;99.90;;;;;;5032881;28;20175;-71
2022/07/04 00:20:23;;;;;;;7.27;6.77;;;19.50;99.90;;;;;;5032721;28;20710;-71
2022/07/04 00:22:49;;;;;;;6.37;6.07;;;19.40;99.90;;;;;;5033890;28;20179;-72
2022/07/04 00:25:15;;;;;;;7.30;6.70;;;19.30;99.90;;;;;;5033128;28;20258;-71
2022/07/04 00:27:41;;;;;;;7.80;7.30;;;19.30;99.90;;;;;;5033005;28;20202;-71
2022/07/04 00:30:07;;;;;;;14.67;13.77;;;19.20;99.90;;;;;;5033419;28;20289;-71
2022/07/04 00:32:33;;;;;;;17.03;15.97;;;19.20;99.90;;;;;;5033375;28;20175;-71
2022/07/04 00:34:59;;;;;;;13.73;12.53;;;19.30;99.90;;;;;;5033800;28;20630;-71
2022/07/04 00:37:24;;;;;;;14.27;13.40;;;19.40;99.90;;;;;;5031857;28;20189;-72
2022/07/04 00:39:50;;;;;;;15.60;14.83;;;19.40;99.90;;;;;;5033767;28;20214;-72
2022/07/04 00:42:16;;;;;;;14.50;13.82;;;19.50;99.90;;;;;;5033717;28;20715;-72
2022/07/04 00:44:42;;;;;;;11.23;10.73;;;19.50;99.90;;;;;;5034006;28;20664;-72
2022/07/04 00:47:08;;;;;;;17.40;16.30;;;19.60;99.90;;;;;;5032785;28;20262;-72
2022/07/04 00:49:34;;;;;;;13.00;12.27;;;19.60;99.90;;;;;;5033901;28;20211;-72
2022/07/04 00:52:01;;;;;;;9.70;9.10;;;19.60;99.90;;;;;;5033417;28;20648;-72
2022/07/04 00:54:29;;;;;;;6.28;5.78;;;19.50;99.90;;;;;;5033567;28;20632;-72
2022/07/04 00:56:56;;;;;;;7.27;6.60;;;19.50;99.90;;;;;;5032603;28;20547;-72
2022/07/04 00:59:22;;;;;;;6.20;5.75;;;19.50;99.90;;;;;;5033162;28;20269;-72
2022/07/04 01:01:48;;;;;;;5.60;5.30;;;19.60;99.90;;;;;;5031740;28;20183;-72
2022/07/04 01:04:15;;;;;;;6.67;6.37;;;19.60;99.90;;;;;;5032087;28;20262;-72
2022/07/04 01:06:41;;;;;;;6.43;6.00;;;19.50;99.90;;;;;;5032979;28;20547;-71
2022/07/04 01:09:07;;;;;;;9.57;8.95;;;19.50;99.90;;;;;;5032716;28;20203;-72
2022/07/04 01:11:33;;;;;;;6.60;6.10;;;19.40;99.90;;;;;;5033159;28;20175;-72
2022/07/04 01:13:59;;;;;;;6.60;6.07;;;19.40;99.90;;;;;;5031846;28;20213;-71
2022/07/04 01:16:26;;;;;;;7.27;6.30;;;19.30;99.90;;;;;;5031602;28;20183;-71
2022/07/04 01:18:52;;;;;;;8.27;7.88;;;19.40;99.90;;;;;;5030752;28;20277;-71
2022/07/04 01:21:18;;;;;;;9.45;8.95;;;19.30;99.90;;;;;;5032715;28;20207;-71
2022/07/04 01:23:45;;;;;;;10.80;10.07;;;19.30;99.90;;;;;;5031891;28;20190;-71
2022/07/04 01:26:11;;;;;;;13.23;12.43;;;19.20;99.90;;;;;;5032825;28;20232;-72
2022/07/04 01:28:37;;;;;;;43.78;41.30;;;19.20;99.90;;;;;;5030418;28;20198;-71
2022/07/04 01:31:04;;;;;;;63.97;60.80;;;19.10;99.90;;;;;;5031574;28;20187;-71
2022/07/04 01:33:30;;;;;;;74.53;70.77;;;19.20;99.90;;;;;;5032659;28;20242;-70
2022/07/04 01:35:56;;;;;;;90.17;85.77;;;19.20;99.90;;;;;;5031327;28;20658;-71
2022/07/04 01:38:22;;;;;;;102.57;97.37;;;19.10;99.90;;;;;;5031144;28;20813;-71
2022/07/04 01:40:48;;;;;;;123.47;117.53;;;19.10;99.90;;;;;;5031352;28;20310;-71
2022/07/04 01:43:14;;;;;;;135.90;129.07;;;19.00;99.90;;;;;;5032538;28;20245;-71
2022/07/04 01:45:39;;;;;;;143.67;136.70;;;19.00;99.90;;;;;;5032528;28;20593;-72
2022/07/04 01:48:06;;;;;;;146.13;139.13;;;19.00;99.90;;;;;;5031891;28;20572;-72
2022/07/04 01:50:32;;;;;;;140.57;133.30;;;19.00;99.90;;;;;;5032533;28;20199;-74
2022/07/04 01:52:58;;;;;;;149.93;142.73;;;19.00;99.90;;;;;;5032553;28;20211;-72
2022/07/04 01:55:24;;;;;;;151.93;144.73;;;19.00;99.90;;;;;;5032682;28;20190;-72
2022/07/04 01:57:50;;;;;;;115.93;109.97;;;19.10;99.90;;;;;;5031628;28;20735;-72
2022/07/04 02:03:00;;;;;;;131.23;124.73;;;19.10;99.90;;;;;;5031947;28;20875;-72
2022/07/04 02:05:26;;;;;;;154.57;146.93;;;19.00;99.90;;;;;;5031174;28;20183;-72
2022/07/04 02:07:52;;;;;;;152.43;145.10;;;19.00;99.90;;;;;;5029766;28;20553;-72
2022/07/04 02:10:18;;;;;;;116.53;110.93;;;19.10;99.90;;;;;;5031610;28;20210;-72
2022/07/04 02:13:02;;;;;;;94.83;89.70;;;19.20;99.90;;;;;;5031790;28;20225;-72
2022/07/04 02:15:37;;;;;;;107.50;102.33;;;19.10;99.90;;;;;;5031820;28;20241;-72
2022/07/04 02:18:04;;;;;;;124.57;118.37;;;19.10;99.90;;;;;;5030929;28;20223;-72
2022/07/04 02:20:30;;;;;;;185.50;176.27;;;19.10;99.90;;;;;;5030537;28;20260;-72
2022/07/04 02:22:56;;;;;;;196.67;186.97;;;19.10;99.90;;;;;;5031634;28;20562;-72
2022/07/04 02:25:23;;;;;;;190.67;181.10;;;19.10;99.90;;;;;;5030508;28;20175;-72
2022/07/04 02:27:49;;;;;;;170.53;162.00;;;19.10;99.90;;;;;;5030787;28;20174;-72
2022/07/04 02:30:15;;;;;;;124.97;118.50;;;19.10;99.90;;;;;;5030416;28;20305;-72
2022/07/04 02:32:41;;;;;;;95.30;90.20;;;19.20;99.90;;;;;;5031788;28;20186;-72
2022/07/04 02:35:08;;;;;;;72.40;68.80;;;19.20;99.90;;;;;;5031611;28;20179;-71
2022/07/04 02:37:34;;;;;;;94.00;89.27;;;19.20;99.90;;;;;;5030078;28;20195;-71
2022/07/04 02:40:00;;;;;;;74.45;70.57;;;19.30;99.90;;;;;;5032065;28;20214;-71
2022/07/04 02:42:33;;;;;;;71.53;67.73;;;19.30;99.90;;;;;;5030505;28;20613;-70
2022/07/04 02:44:59;;;;;;;81.77;77.37;;;19.30;99.90;;;;;;5031336;28;20617;-70
2022/07/04 02:47:25;;;;;;;58.37;55.43;;;19.30;99.90;;;;;;5030332;28;20209;-72
2022/07/04 02:49:51;;;;;;;69.77;65.67;;;19.30;99.90;;;;;;5031194;28;20202;-71
2022/07/04 02:52:17;;;;;;;112.93;107.30;;;19.30;99.90;;;;;;5031122;28;20237;-72
2022/07/04 02:54:44;;;;;;;140.33;133.13;;;19.30;99.90;;;;;;5031144;28;20277;-71
2022/07/04 02:57:10;;;;;;;141.53;134.50;;;19.30;99.90;;;;;;5028911;28;20210;-72
2022/07/04 02:59:36;;;;;;;192.70;182.97;;;19.20;99.90;;;;;;5030976;28;20710;-72
2022/07/04 03:02:02;;;;;;;169.87;161.10;;;19.20;99.90;;;;;;5031005;28;20182;-70
2022/07/04 03:04:28;;;;;;;157.40;149.53;;;19.10;99.90;;;;;;5030995;28;20175;-71
2022/07/04 03:06:53;;;;;;;161.83;153.17;;;19.00;99.90;;;;;;5030064;28;20573;-71
2022/07/04 03:09:19;;;;;;;208.27;197.87;;;18.90;99.90;;;;;;5030510;28;20203;-71
2022/07/04 03:11:45;;;;;;;233.47;221.73;;;19.00;99.90;;;;;;5031020;28;20643;-71
2022/07/04 03:14:11;;;;;;;156.13;148.50;;;18.90;99.90;;;;;;5031369;28;20179;-72
2022/07/04 03:16:37;;;;;;;101.50;96.10;;;19.00;99.90;;;;;;5030168;28;20171;-72
2022/07/04 03:19:03;;;;;;;49.13;46.70;;;18.90;99.90;;;;;;5030065;28;20218;-71
2022/07/04 03:21:29;;;;;;;80.07;72.63;;;18.80;99.90;;;;;;5031102;28;20171;-74
2022/07/04 03:23:58;;;;;;;16.80;15.73;;;18.80;99.90;;;;;;5029680;28;20297;-72
2022/07/04 03:26:32;;;;;;;19.73;18.40;;;18.70;99.90;;;;;;5029678;28;20187;-72
2022/07/04 03:28:59;;;;;;;21.70;20.47;;;18.60;99.90;;;;;;5029134;28;20664;-72
2022/07/04 03:31:26;;;;;;;11.47;10.70;;;18.50;99.90;;;;;;5030418;28;20329;-73
2022/07/04 03:33:52;;;;;;;6.03;5.63;;;18.60;99.90;;;;;;5033877;28;20194;-72
2022/07/04 03:36:18;;;;;;;7.50;5.83;;;18.60;99.90;;;;;;5034781;28;20648;-72
2022/07/04 03:38:44;;;;;;;5.87;5.37;;;18.60;99.90;;;;;;5032378;28;20264;-72
2022/07/04 03:41:10;;;;;;;7.90;7.20;;;18.60;99.90;;;;;;5033527;28;20211;-72
2022/07/04 03:43:36;;;;;;;11.73;10.83;;;18.60;99.90;;;;;;5033422;28;20182;-72
2022/07/04 03:46:02;;;;;;;10.93;10.23;;;18.60;99.90;;;;;;5034330;28;20561;-73
2022/07/04 03:48:28;;;;;;;7.10;6.60;;;18.60;99.90;;;;;;5033843;28;20183;-73
2022/07/04 03:50:54;;;;;;;6.83;5.80;;;18.60;99.90;;;;;;5033411;28;20233;-73
2022/07/04 03:53:20;;;;;;;7.03;6.20;;;18.70;99.90;;;;;;5033005;28;20179;-73
2022/07/04 03:55:47;;;;;;;8.30;7.70;;;18.70;99.90;;;;;;5033301;28;20559;-72
2022/07/04 03:58:12;;;;;;;7.37;6.63;;;18.60;99.90;;;;;;5033529;28;20209;-72
2022/07/04 04:00:38;;;;;;;6.10;5.67;;;18.60;99.90;;;;;;5032998;28;20683;-72
2022/07/04 04:05:26;;;;;;;7.37;6.60;;;18.70;99.90;;;;;;5031944;28;20190;-72
2022/07/04 04:05:50;;;;;;;11.20;10.57;;;18.60;99.90;;;;;;5034001;28;20790;-71
2022/07/04 04:08:15;;;;;;;7.23;6.20;;;18.70;99.90;;;;;;5033607;28;20209;-72
2022/07/04 04:10:42;;;;;;;5.50;5.20;;;18.60;99.90;;;;;;5034525;28;20198;-72
2022/07/04 04:13:08;;;;;;;8.07;7.47;;;18.60;99.90;;;;;;5032777;28;20179;-71
2022/07/04 04:15:34;;;;;;;11.63;10.17;;;18.50;99.90;;;;;;5034234;28;20217;-72
2022/07/04 04:18:00;;;;;;;29.63;27.70;;;18.50;99.90;;;;;;5033286;28;20203;-73
2022/07/04 04:20:26;;;;;;;32.17;30.30;;;18.50;99.90;;;;;;5033107;28;20245;-73
2022/07/04 04:22:51;;;;;;;33.30;31.40;;;18.60;99.90;;;;;;5034120;28;20643;-73
2022/07/04 04:25:18;;;;;;;29.37;27.50;;;18.60;99.90;;;;;;5033950;28;20175;-73
2022/07/04 04:27:43;;;;;;;11.87;11.07;;;18.60;99.90;;;;;;5033003;28;20183;-74
2022/07/04 04:30:10;;;;;;;10.77;10.07;;;18.60;99.90;;;;;;5034591;28;20341;-75
2022/07/04 04:32:35;;;;;;;5.87;5.27;;;18.60;99.90;;;;;;5032964;28;20186;-74
2022/07/04 04:35:02;;;;;;;5.87;5.47;;;18.70;99.90;;;;;;5033117;28;20179;-77
2022/07/04 04:37:28;;;;;;;6.27;5.77;;;18.80;99.90;;;;;;5032174;28;20187;-76
2022/07/04 04:39:53;;;;;;;11.10;10.40;;;18.80;99.90;;;;;;5032309;28;20596;-74
2022/07/04 04:42:19;;;;;;;13.17;12.37;;;18.90;99.90;;;;;;5034842;28;20225;-75
2022/07/04 04:44:45;;;;;;;52.03;49.10;;;19.00;99.90;;;;;;5034371;28;20179;-75
2022/07/04 04:47:11;;;;;;;125.93;119.63;;;19.10;99.90;;;;;;5032571;28;20178;-74
2022/07/04 04:49:37;;;;;;;221.80;210.57;;;19.20;99.90;;;;;;5034351;28;20273;-75
2022/07/04 04:52:03;;;;;;;336.50;318.53;;;19.20;99.90;;;;;;5032703;28;20186;-75
2022/07/04 04:54:29;;;;;;;324.23;307.03;;;19.30;99.90;;;;;;5031390;28;20751;-75
2022/07/04 04:56:55;;;;;;;205.03;194.13;;;19.40;99.90;;;;;;5030895;28;20202;-74
2022/07/04 04:59:21;;;;;;;42.87;40.67;;;19.50;99.90;;;;;;5031387;28;20257;-74
2022/07/04 05:01:47;;;;;;;20.95;19.42;;;19.60;99.90;;;;;;5024541;28;20180;-75
2022/07/04 05:04:14;;;;;;;9.47;8.67;;;19.70;99.90;;;;;;5016049;28;20214;-74
2022/07/04 05:06:40;;;;;;;6.10;5.80;;;19.80;99.90;;;;;;5012937;28;20234;-75
2022/07/04 05:09:06;;;;;;;6.67;5.73;;;19.90;99.90;;;;;;5025762;28;20293;-74
2022/07/04 05:11:33;;;;;;;8.20;7.60;;;20.00;99.90;;;;;;5031982;28;20217;-75
2022/07/04 05:14:02;;;;;;;10.90;10.15;;;20.10;99.90;;;;;;5030478;28;20202;-75
2022/07/04 05:16:27;;;;;;;50.67;47.77;;;20.20;99.90;;;;;;5031386;28;20187;-75
2022/07/04 05:18:53;;;;;;;77.40;73.45;;;20.30;99.90;;;;;;5048571;23;20197;-79
2022/07/04 05:21:19;;;;;;;73.45;69.78;;;20.50;99.90;;;;;;4990989;28;20584;-76
2022/07/04 05:23:46;;;;;;;37.08;35.00;;;20.70;99.90;;;;;;5001950;28;20192;-76
2022/07/04 05:26:12;;;;;;;10.07;9.37;;;20.80;99.90;;;;;;5009090;28;20183;-77
2022/07/04 05:28:37;;;;;;;12.68;11.88;;;20.80;99.90;;;;;;4999765;28;20180;-76
2022/07/04 05:31:03;;;;;;;16.10;15.32;;;20.80;99.90;;;;;;5008519;28;20167;-77
2022/07/04 05:33:29;;;;;;;9.48;8.95;;;20.80;99.90;;;;;;4994215;28;20193;-78
2022/07/04 05:35:55;;;;;;;15.77;14.88;;;20.70;99.90;;;;;;4994895;28;20653;-78
2022/07/04 05:38:21;;;;;;;11.37;10.77;;;20.60;99.90;;;;;;4989656;28;20192;-77
2022/07/04 05:40:46;;;;;;;13.15;12.35;;;20.60;99.90;;;;;;4990753;28;20708;-77
2022/07/04 05:43:12;;;;;;;10.13;9.30;;;20.50;99.90;;;;;;4993567;28;20667;-77
2022/07/04 05:45:38;;;;;;;8.98;8.48;;;20.40;99.90;;;;;;5009775;28;20194;-77
2022/07/04 05:48:04;;;;;;;8.45;7.65;;;20.40;99.90;;;;;;5010932;28;20187;-77
2022/07/04 05:50:30;;;;;;;8.13;7.53;;;20.50;99.90;;;;;;5011183;28;20210;-77
2022/07/04 05:52:56;;;;;;;7.65;7.03;;;20.50;99.90;;;;;;5011649;28;20214;-77
2022/07/04 05:55:22;;;;;;;8.75;5.88;;;20.70;99.90;;;;;;5017757;28;20612;-77
2022/07/04 05:57:47;;;;;;;25.90;24.48;;;21.00;99.90;;;;;;5010890;28;20195;-77
2022/07/04 06:00:13;;;;;;;32.58;30.88;;;21.60;99.90;;;;;;5012189;28;20762;-79
2022/07/04 06:02:41;;;;;;;9.65;9.15;;;22.30;99.90;;;;;;5026042;28;20263;-77
2022/07/04 06:05:07;;;;;;;9.20;8.63;;;23.00;99.90;;;;;;5022497;28;20191;-78
2022/07/04 06:07:33;;;;;;;9.80;9.25;;;23.40;99.90;;;;;;5014376;28;20180;-78
2022/07/04 06:09:59;;;;;;;8.65;7.90;;;23.60;99.90;;;;;;5013799;28;20199;-78
2022/07/04 06:12:25;;;;;;;12.35;11.75;;;23.70;99.90;;;;;;5015251;28;20183;-78
2022/07/04 06:14:50;;;;;;;13.38;12.57;;;23.70;99.90;;;;;;5013451;28;20187;-77
2022/07/04 06:17:23;;;;;;;15.57;14.57;;;23.70;99.90;;;;;;5087988;27;20554;-73
2022/07/04 06:19:49;;;;;;;28.58;27.02;;;24.00;99.90;;;;;;5088010;28;20201;-76
2022/07/04 06:22:15;;;;;;;31.65;30.02;;;24.30;99.90;;;;;;5087570;28;20173;-75
2022/07/04 06:24:41;;;;;;;18.27;16.88;;;24.40;99.90;;;;;;5088781;28;20204;-78
2022/07/04 06:27:06;;;;;;;10.38;9.77;;;24.80;99.90;;;;;;5087925;28;20177;-76
2022/07/04 06:29:32;;;;;;;4.32;4.00;;;24.90;99.90;;;;;;5088718;28;20579;-76
2022/07/04 06:31:58;;;;;;;7.25;3.70;;;24.90;99.90;;;;;;5088463;28;20200;-76
2022/07/04 06:37:08;;;;;;;7.93;7.32;;;24.60;99.90;;;;;;5088803;28;20213;-76
2022/07/04 06:39:34;;;;;;;16.35;15.55;;;24.10;99.90;;;;;;5098640;28;20249;-76
2022/07/04 06:42:00;;;;;;;17.83;16.63;;;23.80;99.90;;;;;;5081347;28;20185;-76
2022/07/04 06:44:26;;;;;;;37.47;35.15;;;23.80;99.90;;;;;;5069174;28;20181;-77
2022/07/04 06:46:52;;;;;;;33.90;32.00;;;23.80;99.90;;;;;;5072405;28;20553;-77
2022/07/04 06:49:21;;;;;;;39.88;37.83;;;23.70;99.90;;;;;;5086854;28;20743;-77
2022/07/04 06:51:47;;;;;;;28.58;27.02;;;23.70;99.90;;;;;;5086741;28;20669;-77
2022/07/04 06:54:12;;;;;;;37.00;35.17;;;23.80;99.90;;;;;;5088394;28;20177;-76
2022/07/04 06:56:38;;;;;;;28.30;26.77;;;24.00;99.90;;;;;;5098329;28;20752;-75
2022/07/04 06:59:04;;;;;;;36.05;34.13;;;24.00;99.90;;;;;;5079233;27;20670;-77
2022/07/04 07:01:30;;;;;;;32.47;30.63;;;23.80;99.90;;;;;;5087666;28;20272;-77
2022/07/04 07:03:56;;;;;;;26.42;25.00;;;23.80;99.90;;;;;;5109648;28;20193;-77
2022/07/04 07:06:23;;;;;;;21.98;20.60;;;24.00;99.90;;;;;;5099278;28;20185;-76
2022/07/04 07:08:49;;;;;;;15.95;15.18;;;24.20;99.90;;;;;;5086374;28;20192;-77
2022/07/04 07:11:18;;;;;;;13.85;12.98;;;24.50;99.90;;;;;;5087282;28;20590;-77
2022/07/04 07:13:47;;;;;;;6.30;5.90;;;24.70;99.90;;;;;;5077421;28;20267;-76
2022/07/04 07:16:14;;;;;;;4.60;4.40;;;24.90;99.90;;;;;;5091330;28;20212;-76
2022/07/04 07:18:40;;;;;;;9.38;4.78;;;24.80;99.90;;;;;;5085899;28;20219;-77
2022/07/04 07:21:05;;;;;;;5.97;5.60;;;24.80;99.90;;;;;;5086290;28;20187;-77
2022/07/04 07:23:31;;;;;;;6.18;5.80;;;24.80;99.90;;;;;;5086388;28;20176;-77
2022/07/04 07:25:57;;;;;;;6.93;6.38;;;24.70;99.90;;;;;;5086963;28;20307;-77
2022/07/04 07:28:23;;;;;;;6.50;5.90;;;24.80;99.90;;;;;;5073766;28;20259;-77
2022/07/04 07:30:49;;;;;;;6.65;6.18;;;24.90;99.90;;;;;;5073601;28;20213;-78
2022/07/04 07:33:15;;;;;;;6.82;6.40;;;25.20;99.90;;;;;;5070069;28;20331;-77
2022/07/04 07:35:40;;;;;;;9.23;5.82;;;25.30;99.90;;;;;;5084224;28;20288;-78
2022/07/04 07:38:06;;;;;;;5.20;4.97;;;25.40;99.90;;;;;;5092641;28;20173;-77
2022/07/04 07:40:33;;;;;;;7.13;5.10;;;25.60;99.90;;;;;;5092824;28;20209;-78
2022/07/04 07:42:58;;;;;;;6.13;5.75;;;25.90;99.90;;;;;;5096276;28;20175;-78
2022/07/04 07:45:24;;;;;;;8.45;7.43;;;26.00;99.90;;;;;;5094659;28;20177;-78
2022/07/04 07:47:50;;;;;;;9.70;9.10;;;26.40;99.90;;;;;;5092914;28;20184;-78
2022/07/04 07:50:16;;;;;;;17.13;15.70;;;26.40;99.90;;;;;;5093545;28;20675;-78
2022/07/04 07:52:42;;;;;;;15.90;14.90;;;26.20;99.90;;;;;;5093354;28;20173;-77
2022/07/04 07:55:08;;;;;;;14.73;13.82;;;26.20;99.90;;;;;;5092804;28;20181;-77
2022/07/04 07:57:34;;;;;;;14.77;13.88;;;26.30;99.90;;;;;;5094966;28;20172;-77
2022/07/04 08:00:07;;;;;;;16.92;15.85;;;26.30;99.90;;;;;;5075432;28;20573;-76
2022/07/04 08:05:18;;;;;;;16.00;15.10;;;26.10;99.90;;;;;;5077206;28;20557;-75
2022/07/04 08:07:44;;;;;;;13.60;12.60;;;25.80;99.90;;;;;;5071060;28;20593;-77
2022/07/04 08:10:09;;;;;;;14.35;13.35;;;26.00;99.90;;;;;;5072660;28;20235;-77
2022/07/04 08:12:36;;;;;;;16.60;15.48;;;26.20;99.90;;;;;;5073027;28;20183;-77
2022/07/04 08:15:02;;;;;;;15.05;14.05;;;26.20;99.90;;;;;;5071747;28;20687;-77
2022/07/04 08:17:28;;;;;;;17.85;16.85;;;26.40;99.90;;;;;;5071767;28;20178;-78
2022/07/04 08:19:54;;;;;;;17.85;17.05;;;26.70;99.90;;;;;;5072121;28;20265;-77
2022/07/04 08:22:19;;;;;;;17.17;16.20;;;26.60;99.90;;;;;;5079595;28;20192;-77
2022/07/04 08:24:45;;;;;;;14.43;13.55;;;26.40;99.90;;;;;;5076633;28;20764;-77
2022/07/04 08:27:12;;;;;;;17.52;16.45;;;26.30;99.90;;;;;;5087488;28;20219;-77
2022/07/04 08:29:38;;;;;;;19.40;18.30;;;25.90;99.90;;;;;;5092519;28;20197;-77
2022/07/04 08:32:07;;;;;;;14.57;13.57;;;25.70;99.90;;;;;;5092747;28;20188;-78
2022/07/04 08:34:34;;;;;;;13.40;12.30;;;25.60;99.90;;;;;;5091978;28;20184;-76
2022/07/04 08:37:00;;;;;;;12.82;12.02;;;25.60;99.90;;;;;;5091905;28;20205;-77
2022/07/04 08:39:27;;;;;;;11.52;10.48;;;25.30;99.90;;;;;;5091004;28;20204;-77
2022/07/04 08:41:58;;;;;;;9.65;9.15;;;25.20;99.90;;;;;;5095744;28;20173;-77
2022/07/04 08:44:27;;;;;;;10.75;10.15;;;25.50;99.90;;;;;;5113468;28;20248;-77
2022/07/04 08:46:54;;;;;;;13.18;12.38;;;25.60;99.90;;;;;;5091857;28;20525;-77
2022/07/04 08:49:28;;;;;;;11.52;10.77;;;25.40;99.90;;;;;;5090888;28;20789;-76
2022/07/04 08:52:07;;;;;;;11.73;11.02;;;25.30;99.90;;;;;;5092322;28;20186;-77
2022/07/04 09:00:05;;;;;;;10.18;9.57;;;25.30;99.90;;;;;;5091745;28;20681;-76
2022/07/04 09:02:34;;;;;;;7.60;7.20;;;25.20;99.90;;;;;;5092057;28;20287;-77
2022/07/04 09:05:00;;;;;;;9.88;9.38;;;25.30;99.90;;;;;;5090902;28;20551;-76
2022/07/04 09:07:29;;;;;;;9.85;9.15;;;25.40;99.90;;;;;;5091562;28;20181;-77
2022/07/04 09:09:57;;;;;;;13.75;12.88;;;25.60;99.90;;;;;;5090895;28;20197;-79
2022/07/04 09:12:23;;;;;;;14.32;13.32;;;25.60;99.90;;;;;;5090863;28;20264;-77
2022/07/04 09:14:51;;;;;;;12.52;11.63;;;25.90;99.90;;;;;;5091942;28;20727;-77
2022/07/04 09:17:17;;;;;;;16.90;15.77;;;26.20;99.90;;;;;;5090961;28;20265;-76
2022/07/04 09:19:43;;;;;;;10.82;10.10;;;26.60;99.90;;;;;;5099669;28;20201;-76
2022/07/04 09:22:14;;;;;;;8.50;8.00;;;26.70;99.90;;;;;;5099235;28;20180;-77
2022/07/04 09:24:54;;;;;;;9.40;8.68;;;27.00;99.90;;;;;;5091484;28;20169;-77
2022/07/04 09:27:31;;;;;;;8.82;8.05;;;27.00;99.90;;;;;;5091446;28;20185;-78
2022/07/04 09:29:57;;;;;;;9.90;9.20;;;26.90;99.90;;;;;;5091592;28;20700;-77
2022/07/04 09:32:44;;;;;;;13.70;12.80;;;26.90;99.90;;;;;;5092210;28;20177;-78
2022/07/04 09:35:18;;;;;;;19.77;18.58;;;27.30;99.90;;;;;;5087336;28;20584;-77
2022/07/04 09:37:53;;;;;;;22.40;21.27;;;28.00;99.90;;;;;;5063037;28;20659;-78
2022/07/04 09:40:30;;;;;;;11.43;10.60;;;28.50;99.90;;;;;;5070094;28;20197;-78
2022/07/04 09:42:59;;;;;;;6.07;4.40;;;29.00;98.60;;;;;;5069677;28;20181;-78
2022/07/04 09:45:25;;;;;;;6.53;5.50;;;29.30;98.20;;;;;;5070118;28;20184;-77
2022/07/04 09:47:56;;;;;;;5.05;4.43;;;29.30;97.90;;;;;;5063356;28;20193;-77
2022/07/04 09:50:23;;;;;;;4.80;4.43;;;29.40;97.90;;;;;;5051471;28;20213;-77
2022/07/04 09:53:02;;;;;;;5.68;4.45;;;29.60;96.90;;;;;;5050786;28;20190;-78
2022/07/04 09:55:33;;;;;;;6.38;4.68;;;30.20;97.30;;;;;;5067405;28;20212;-77
2022/07/04 09:58:03;;;;;;;5.80;5.22;;;31.00;93.90;;;;;;5069870;28;20173;-77
2022/07/04 10:00:32;;;;;;;4.82;4.47;;;31.40;93.80;;;;;;5069904;28;20252;-77
2022/07/04 10:03:25;;;;;;;4.65;4.45;;;31.80;92.10;;;;;;5068901;28;20646;-76
2022/07/04 10:06:12;;;;;;;5.28;4.82;;;32.30;91.40;;;;;;5069558;28;20182;-76
2022/07/04 10:08:42;;;;;;;6.05;5.68;;;32.60;89.30;;;;;;5065148;28;20246;-76
2022/07/04 10:11:09;;;;;;;5.90;5.40;;;32.50;88.10;;;;;;5070093;28;20181;-76
2022/07/04 10:13:37;;;;;;;8.63;8.23;;;31.80;87.70;;;;;;5070499;28;20185;-77
2022/07/04 10:16:03;;;;;;;19.20;18.13;;;32.10;86.60;;;;;;5069387;28;20209;-76
2022/07/04 10:18:29;;;;;;;17.85;16.92;;;32.20;84.30;;;;;;5069150;28;20181;-76
2022/07/04 10:20:56;;;;;;;9.38;8.88;;;32.50;83.40;;;;;;5071459;28;20228;-76
2022/07/04 10:23:23;;;;;;;16.45;15.30;;;32.30;77.90;;;;;;5093366;28;20186;-75
2022/07/04 10:25:51;;;;;;;23.23;21.98;;;32.20;76.70;;;;;;5069123;28;20182;-75
2022/07/04 10:28:18;;;;;;;32.58;31.02;;;31.80;76.20;;;;;;5068353;28;20261;-77
2022/07/04 10:30:47;;;;;;;22.17;20.88;;;31.60;75.40;;;;;;5070314;28;20201;-77
2022/07/04 10:33:15;;;;;;;18.70;17.60;;;31.90;77.20;;;;;;5069499;28;20323;-77
2022/07/04 10:36:01;;;;;;;23.35;21.90;;;32.50;76.70;;;;;;5069522;28;20208;-76
2022/07/04 10:38:32;;;;;;;14.40;13.43;;;32.90;73.10;;;;;;5081662;28;20253;-76
2022/07/04 10:41:08;;;;;;;13.40;12.10;;;32.50;72.40;;;;;;5080783;28;20209;-76
2022/07/04 10:46:02;;;;;;;13.60;12.40;;;32.00;72.50;;;;;;5087368;28;20227;-78
2022/07/04 10:48:29;;;;;;;12.98;11.90;;;31.30;73.90;;;;;;5088929;28;20280;-77
2022/07/04 10:51:03;;;;;;;35.03;33.15;;;31.50;74.20;;;;;;5088979;28;20348;-77
2022/07/04 10:53:30;;;;;;;10.27;9.65;;;31.60;67.00;;;;;;5089339;28;20556;-77
2022/07/04 10:56:14;;;;;;;13.15;12.40;;;31.10;73.70;;;;;;5096931;28;20209;-78
2022/07/04 10:58:42;;;;;;;11.45;10.63;;;31.70;73.20;;;;;;5068311;28;20221;-78
2022/07/04 11:01:17;;;;;;;4.13;3.83;;;32.20;71.50;;;;;;5077628;28;20177;-77
2022/07/04 11:03:50;;;;;;;8.07;7.43;;;31.30;72.60;;;;;;5083904;28;20244;-77
2022/07/04 11:06:35;;;;;;;9.90;9.20;;;31.20;75.90;;;;;;5086635;28;20212;-78
2022/07/04 11:09:30;;;;;;;9.27;8.77;;;31.80;76.50;;;;;;5077915;28;20262;-77
2022/07/04 11:12:04;;;;;;;27.42;25.92;;;33.10;71.80;;;;;;5077692;28;20212;-77
2022/07/04 11:14:41;;;;;;;89.53;85.32;;;33.50;69.20;;;;;;5080662;28;20573;-77
2022/07/04 11:17:19;;;;;;;119.30;113.65;;;33.30;69.20;;;;;;5081353;28;20213;-77
2022/07/04 11:19:44;;;;;;;40.45;38.13;;;32.70;69.20;;;;;;5083949;22;20222;-80
2022/07/04 11:22:10;;;;;;;125.20;119.18;;;32.80;72.00;;;;;;5053650;28;20273;-79
2022/07/04 11:24:38;;;;;;;118.85;113.10;;;32.90;69.40;;;;;;5037504;28;20189;-80
2022/07/04 11:27:07;;;;;;;249.65;237.60;;;32.70;68.00;;;;;;5051586;28;20190;-80
2022/07/04 11:29:34;;;;;;;244.45;232.68;;;32.90;65.80;;;;;;5035949;28;20207;-80
2022/07/04 11:32:00;;;;;;;144.65;137.23;;;33.10;65.50;;;;;;5035646;28;20179;-80
2022/07/04 11:34:31;;;;;;;151.55;143.90;;;33.20;65.50;;;;;;5037743;28;20187;-79
2022/07/04 11:36:58;;;;;;;148.60;141.50;;;33.40;67.30;;;;;;5036913;28;20248;-79
2022/07/04 11:39:23;;;;;;;262.95;249.85;;;33.70;66.60;;;;;;5046745;28;20224;-79
2022/07/04 11:47:42;;;;;;;366.30;346.85;;;34.90;62.00;;;;;;5024389;28;20179;-79
2022/07/04 11:50:18;;;;;;;285.17;271.08;;;35.30;60.80;;;;;;5043203;28;20223;-80
2022/07/04 11:52:46;;;;;;;241.20;229.50;;;35.60;59.40;;;;;;5045017;28;20181;-80
2022/07/04 11:55:16;;;;;;;240.43;228.52;;;35.20;58.70;;;;;;5039706;28;20648;-79
2022/07/04 11:57:52;;;;;;;225.43;214.25;;;35.20;59.10;;;;;;5037528;28;20270;-79
2022/07/04 12:00:25;;;;;;;312.50;296.58;;;35.50;58.20;;;;;;5027951;28;20213;-80
2022/07/04 12:02:51;;;;;;;359.98;340.92;;;34.60;61.80;;;;;;5018985;28;20640;-79
2022/07/04 12:05:18;;;;;;;320.08;303.23;;;34.20;62.10;;;;;;5019041;28;20187;-79
2022/07/04 12:07:46;;;;;;;267.10;254.02;;;34.80;61.80;;;;;;5038230;28;20233;-80
2022/07/04 12:10:18;;;;;;;231.43;220.30;;;35.30;58.60;;;;;;5040586;28;20199;-80
2022/07/04 12:13:06;;;;;;;241.52;229.77;;;35.20;57.50;;;;;;5037791;28;20179;-79
2022/07/04 12:15:42;;;;;;;248.48;236.25;;;34.60;57.90;;;;;;5041502;28;20215;-79
2022/07/04 12:18:27;;;;;;;217.13;206.57;;;35.00;57.40;;;;;;5042922;28;20408;-78
2022/07/04 12:20:54;;;;;;;228.85;217.85;;;35.60;55.20;;;;;;5040427;28;20230;-79
2022/07/04 12:23:21;;;;;;;214.48;204.23;;;35.20;56.60;;;;;;5043954;28;20183;-79
2022/07/04 12:25:50;;;;;;;206.10;196.10;;;35.70;57.90;;;;;;5041500;28;20187;-80
2022/07/04 12:28:17;;;;;;;169.98;161.70;;;36.20;56.00;;;;;;5035442;28;20175;-80
2022/07/04 12:30:50;;;;;;;219.60;209.02;;;36.50;55.00;;;;;;5036012;28;20203;-80
2022/07/04 12:33:19;;;;;;;188.63;179.43;;;36.00;55.50;;;;;;5036578;28;20186;-80
2022/07/04 12:35:50;;;;;;;239.70;228.05;;;34.70;56.50;;;;;;5036050;28;20705;-79
2022/07/04 12:38:26;;;;;;;256.42;243.38;;;34.30;56.20;;;;;;5034239;28;20552;-80
2022/07/04 12:40:59;;;;;;;240.77;228.93;;;34.10;57.30;;;;;;5034410;28;20226;-80
2022/07/04 12:43:43;;;;;;;207.52;197.60;;;34.80;58.10;;;;;;5035435;28;20554;-80
2022/07/04 12:46:10;;;;;;;232.50;220.65;;;34.50;56.30;;;;;;5050963;28;20194;-77
2022/07/04 12:48:37;;;;;;;266.20;253.05;;;34.20;57.10;;;;;;5049564;28;20175;-79
2022/07/04 12:51:33;;;;;;;242.20;230.55;;;34.50;58.70;;;;;;5036982;28;20214;-78
2022/07/04 12:54:06;;;;;;;225.32;214.38;;;34.80;56.50;;;;;;5027399;28;20215;-78